ADDS METAR Data INFO
IDs: Format: Raw Decoded Include TAF

Data at: 1553 UTC 12 Dec 2017

KLWV 121453Z AUTO 34020KT 10SM CLR M02/M10 A3014 RMK AO2 PK WND 34028/1404 SLP210 T10171100 51034
KLWV 121353Z AUTO 33017KT 10SM CLR M02/M08 A3012 RMK AO2 PK WND 32030/1316 SLP202 T10171083
KLWV 121253Z AUTO 33020KT 10SM OVC044 00/M07 A3007 RMK AO2 PK WND 34032/1233 SLP185 T00001067
KLWV 121153Z AUTO 31017G24KT 10SM OVC041 01/M06 A3004 RMK AO2 SLP174 60000 T00111061 10050 20011 53017
KLWV 121053Z AUTO 34013KT 10SM OVC034 01/M05 A3002 RMK AO2 PK WND 34027/1010 SLP168 T00111050
KLWV 121023Z AUTO 34013KT 10SM SCT022 BKN030 OVC035 02/M04 A3002 RMK AO2 PK WND 34027/1010 T00171039
KLWV 120953Z AUTO 32019G24KT 10SM OVC019 02/M02 A3001 RMK AO2 PK WND 32026/0937 SLP164 T00221022
KLWV 120853Z AUTO 33016KT 4SM BR OVC015 02/M01 A2999 RMK AO2 UPE01 SLP158 P0000 60000 T00171006 53020
KLWV 120822Z AUTO 33020G25KT 8SM OVC016 02/M01 A2998 RMK AO2 UPE01 P0000 T00221006
KLWV 120753Z AUTO 35012KT 5SM UP BR OVC014 02/00 A2997 RMK AO2 PK WND 33031/0709 UPB51 SLP150 P0000 T00220000
KLWV 120653Z AUTO 32021KT 10SM OVC017 04/00 A2995 RMK AO2 PK WND 33027/0643 SLP142 T00390000
KLWV 120553Z AUTO 31020G31KT 10SM BKN020 OVC025 05/00 A2993 RMK AO2 PK WND 32035/0539 SLP138 T00500000 10089 20050 401281044 53026
KLWV 120453Z AUTO 31021G27KT 10SM BKN027 OVC032 06/00 A2990 RMK AO2 PK WND 30029/0443 SLP128 T00610000
KLWV 120353Z AUTO 30015G23KT 10SM OVC034 07/00 A2987 RMK AO2 SLP116 T00720000
KLWV 120253Z AUTO 30012G21KT 10SM OVC038 07/00 A2985 RMK AO2 PK WND 28030/0204 SLP112 T00720000 53022
KLWV 120153Z AUTO 28021G27KT 10SM OVC050 08/M01 A2983 RMK AO2 PK WND 30029/0108 SLP103 T00831006
KLWV 120053Z AUTO 30019G25KT 10SM BKN070 09/M01 A2981 RMK AO2 SLP096 T00891011
KLWV 112353Z AUTO 28013G21KT 10SM CLR 09/M03 A2979 RMK AO2 PK WND 28029/2301 SLP089 T00941028 10128 20089 53026
KLWV 112253Z AUTO 28018G32KT 10SM CLR 12/M04 A2975 RMK AO2 PK WND 29032/2248 SLP076 T01221039
KLWV 112153Z AUTO 21014KT 10SM CLR 12/00 A2970 RMK AO2 SLP060 T01170000
KLWV 112053Z AUTO 21017KT 10SM CLR 12/00 A2971 RMK AO2 SLP062 T01220000 56040
KLWV 111953Z AUTO 20019KT 10SM CLR 13/01 A2972 RMK AO2 PK WND 20027/1937 SLP065 T01280006
KLWV 111853Z AUTO 19020KT 10SM CLR 11/00 A2976 RMK AO2 SLP079 T01110000
KLWV 111753Z AUTO 18017KT 10SM CLR 09/00 A2983 RMK AO2 PRESFR SLP102 T00940000 10094 21022 58068
KLWV 111653Z AUTO 19014KT 10SM CLR 06/M01 A2991 RMK AO2 SLP132 T00611006
KLWV 111553Z AUTO 17011KT 10SM CLR 03/M02 A2999 RMK AO2 PRESFR SLP157 T00281017
KLWV 111453Z AUTO 18006KT 10SM CLR 00/M03 A3003 RMK AO2 SLP173 T00001028 58020
KLWV 111353Z AUTO 18003KT 10SM CLR M01/M03 A3005 RMK AO2 SLP181 T10061033
KLWV 111253Z AUTO 18005KT 10SM CLR M02/M04 A3008 RMK AO2 SLP189 T10171039
KLWV 111153Z AUTO 16003KT 10SM CLR M02/M04 A3009 RMK AO2 SLP193 T10221039 10006 21044 58012
KLWV 111053Z AUTO 00000KT 10SM CLR M04/M06 A3011 RMK AO2 SLP200 T10391056
KLWV 110953Z AUTO 18003KT 10SM CLR M04/M06 A3010 RMK AO2 SLP197 T10391056
KLWV 110853Z AUTO 20003KT 10SM CLR M04/M06 A3012 RMK AO2 SLP203 T10391061 56008
KLWV 110753Z AUTO 00000KT 10SM CLR M03/M06 A3012 RMK AO2 SLP203 T10331061
KLWV 110653Z AUTO 00000KT 10SM CLR M02/M06 A3013 RMK AO2 SLP207 T10221056
KLWV 110553Z AUTO 34003KT 10SM CLR 01/M04 A3015 RMK AO2 SLP211 T00061044 10039 21006 400721067 51010
KLWV 110453Z AUTO 31003KT 10SM CLR 00/M05 A3014 RMK AO2 SLP210 T00001050